createdAt,value
2022-08-28T00:00:42.163Z,1.40
2022-08-28T00:03:10.869Z,1.50
2022-08-28T00:05:39.928Z,1.33
2022-08-28T00:08:07.665Z,1.40
2022-08-28T00:10:34.670Z,2.83
2022-08-28T00:13:01.694Z,2.40
2022-08-28T00:15:35.147Z,2.78
2022-08-28T00:18:03.863Z,2.60
2022-08-28T00:20:31.975Z,2.47
2022-08-28T00:22:59.625Z,2.60
2022-08-28T00:25:29.746Z,2.33
2022-08-28T00:27:59.863Z,2.85
2022-08-28T00:30:41.476Z,2.17
2022-08-28T00:33:12.792Z,2.05
2022-08-28T00:38:12.746Z,1.85
2022-08-28T00:40:42.784Z,2.30
2022-08-28T00:45:40.109Z,1.92
2022-08-28T00:48:07.787Z,2.10
2022-08-28T00:50:56.742Z,1.70
2022-08-28T00:53:29.955Z,2.13
2022-08-28T00:56:01.813Z,1.70
2022-08-28T00:58:31.462Z,1.95
2022-08-28T01:01:00.735Z,2.00
2022-08-28T01:03:28.634Z,2.08
2022-08-28T01:05:55.906Z,1.80
2022-08-28T01:08:23.109Z,1.70
2022-08-28T01:10:55.288Z,1.80
2022-08-28T01:13:24.973Z,1.70
2022-08-28T01:15:52.065Z,1.65
2022-08-28T01:18:20.264Z,1.63
2022-08-28T01:20:59.377Z,1.67
2022-08-28T01:24:05.097Z,2.00
2022-08-28T01:26:32.320Z,2.25
2022-08-28T01:29:00.824Z,1.83
2022-08-28T01:31:31.360Z,1.50
2022-08-28T01:34:01.699Z,1.63
2022-08-28T01:36:30.036Z,1.90
2022-08-28T01:39:09.093Z,1.40
2022-08-28T01:41:40.087Z,1.88
2022-08-28T01:44:06.972Z,1.52
2022-08-28T01:46:33.910Z,1.80
2022-08-28T01:49:00.851Z,1.70
2022-08-28T01:51:29.399Z,2.20
2022-08-28T01:54:02.625Z,2.35
2022-08-28T01:56:29.992Z,1.40
2022-08-28T01:58:56.812Z,1.52
2022-08-28T02:01:23.715Z,1.70
2022-08-28T02:03:53.098Z,1.58
2022-08-28T02:06:20.168Z,2.03
2022-08-28T02:08:47.130Z,1.98
2022-08-28T02:11:14.145Z,1.95
2022-08-28T02:13:41.058Z,1.75
2022-08-28T02:16:09.578Z,1.65
2022-08-28T02:18:38.116Z,1.67
2022-08-28T02:21:06.375Z,1.73
2022-08-28T02:23:33.144Z,1.60
2022-08-28T02:26:00.030Z,1.67
2022-08-28T02:28:26.884Z,1.70
2022-08-28T02:30:53.761Z,1.65
2022-08-28T02:33:20.720Z,2.15
2022-08-28T02:35:47.849Z,2.38
2022-08-28T02:38:14.620Z,2.33
2022-08-28T02:40:41.731Z,2.17
2022-08-28T02:43:08.662Z,2.38
2022-08-28T02:45:36.336Z,2.45
2022-08-28T02:48:03.952Z,2.35
2022-08-28T02:50:31.595Z,2.78
2022-08-28T02:52:58.613Z,2.80
2022-08-28T02:55:25.839Z,2.58
2022-08-28T02:57:54.699Z,3.08
2022-08-28T03:00:26.518Z,2.78
2022-08-28T03:02:53.560Z,3.40
2022-08-28T03:05:24.187Z,3.25
2022-08-28T03:07:53.491Z,3.05
2022-08-28T03:10:21.096Z,3.00
2022-08-28T03:12:48.307Z,2.70
2022-08-28T03:15:15.542Z,3.03
2022-08-28T03:17:42.358Z,3.50
2022-08-28T03:20:12.056Z,2.70
2022-08-28T03:22:58.005Z,2.65
2022-08-28T03:25:25.766Z,2.53
2022-08-28T03:27:52.993Z,2.55
2022-08-28T03:30:21.529Z,2.70
2022-08-28T03:32:48.499Z,2.50
2022-08-28T03:35:15.945Z,2.22
2022-08-28T03:37:43.227Z,2.20
2022-08-28T03:40:11.131Z,2.70
2022-08-28T03:42:38.018Z,2.33
2022-08-28T03:45:08.026Z,2.70
2022-08-28T03:47:37.416Z,2.33
2022-08-28T03:50:05.277Z,2.65
2022-08-28T03:52:32.449Z,2.78
2022-08-28T03:54:59.208Z,2.42
2022-08-28T03:57:26.154Z,2.78
2022-08-28T03:59:53.884Z,2.75
2022-08-28T04:02:21.542Z,2.55
2022-08-28T04:04:50.330Z,2.90
2022-08-28T04:07:18.863Z,3.17
2022-08-28T04:09:46.006Z,2.90
2022-08-28T04:12:13.221Z,2.90
2022-08-28T04:14:40.238Z,3.17
2022-08-28T04:17:07.764Z,3.33
2022-08-28T04:19:34.796Z,3.60
2022-08-28T04:22:01.832Z,3.90
2022-08-28T04:24:28.588Z,4.10
2022-08-28T04:26:55.489Z,3.17
2022-08-28T04:29:23.255Z,3.25
2022-08-28T04:31:50.586Z,2.75
2022-08-28T04:34:18.158Z,2.83
2022-08-28T04:36:46.146Z,3.10
2022-08-28T04:39:13.287Z,2.42
2022-08-28T04:41:40.307Z,2.75
2022-08-28T04:44:07.674Z,2.33
2022-08-28T04:46:34.594Z,2.40
2022-08-28T04:49:01.561Z,2.75
2022-08-28T04:51:29.027Z,2.20
2022-08-28T04:53:56.696Z,2.72
2022-08-28T04:56:24.211Z,2.67
2022-08-28T04:58:51.112Z,2.17
2022-08-28T05:01:21.588Z,2.13
2022-08-28T05:03:52.684Z,2.00
2022-08-28T05:06:19.625Z,2.20
2022-08-28T05:08:46.496Z,2.00
2022-08-28T05:11:32.707Z,2.25
2022-08-28T05:14:01.074Z,2.47
2022-08-28T05:16:27.923Z,2.17
2022-08-28T05:18:54.736Z,1.95
2022-08-28T05:21:23.182Z,2.05
2022-08-28T05:23:53.646Z,1.92
2022-08-28T05:26:21.036Z,2.10
2022-08-28T05:28:48.671Z,2.08
2022-08-28T05:31:18.489Z,2.05
2022-08-28T05:33:47.559Z,1.85
2022-08-28T05:36:15.241Z,2.10
2022-08-28T05:38:42.094Z,2.50
2022-08-28T05:41:08.970Z,2.13
2022-08-28T05:43:36.488Z,1.65
2022-08-28T05:46:10.505Z,2.00
2022-08-28T05:48:39.679Z,1.85
2022-08-28T05:51:08.698Z,2.20
2022-08-28T05:53:41.657Z,2.15
2022-08-28T05:56:10.019Z,2.30
2022-08-28T05:58:37.893Z,2.55
2022-08-28T06:01:11.418Z,2.05
2022-08-28T06:03:40.366Z,2.08
2022-08-28T06:06:09.496Z,2.50
2022-08-28T06:08:37.152Z,2.60
2022-08-28T06:11:05.424Z,2.30
2022-08-28T06:13:34.481Z,2.60
2022-08-28T06:16:03.139Z,3.55
2022-08-28T06:18:30.857Z,3.38
2022-08-28T06:21:02.827Z,3.10
2022-08-28T06:23:29.942Z,3.10
2022-08-28T06:25:58.287Z,3.42
2022-08-28T06:28:27.658Z,4.60
2022-08-28T06:31:18.595Z,4.13
2022-08-28T06:33:42.663Z,3.88
2022-08-28T06:36:09.484Z,3.47
2022-08-28T06:38:36.225Z,3.38
2022-08-28T06:41:11.617Z,3.10
2022-08-28T06:43:38.354Z,2.70
2022-08-28T06:46:05.753Z,2.28
2022-08-28T06:48:32.736Z,2.65
2022-08-28T06:51:00.103Z,3.15
2022-08-28T06:53:30.841Z,3.65
2022-08-28T06:56:08.673Z,3.00
2022-08-28T06:58:40.714Z,2.58
2022-08-28T07:01:10.846Z,2.63
2022-08-28T07:03:42.561Z,2.92
2022-08-28T07:06:14.116Z,3.13
2022-08-28T07:08:42.135Z,2.85
2022-08-28T07:11:14.772Z,2.30
2022-08-28T07:13:42.466Z,2.30
2022-08-28T07:16:10.063Z,1.90
2022-08-28T07:18:37.317Z,2.20
2022-08-28T07:21:04.127Z,2.13
2022-08-28T07:23:32.638Z,2.47
2022-08-28T07:26:00.416Z,3.00
2022-08-28T07:28:27.179Z,2.38
2022-08-28T07:31:03.713Z,2.40
2022-08-28T07:33:32.781Z,2.30
2022-08-28T07:36:00.969Z,2.35
2022-08-28T07:38:28.254Z,2.50
2022-08-28T07:40:55.533Z,2.47
2022-08-28T07:43:40.904Z,2.08
2022-08-28T07:46:09.603Z,2.05
2022-08-28T07:48:38.085Z,2.03
2022-08-28T07:51:06.310Z,1.67
2022-08-28T07:53:36.335Z,2.03
2022-08-28T07:56:04.846Z,1.70
2022-08-28T07:58:33.015Z,2.28
2022-08-28T08:01:00.002Z,1.90
2022-08-28T08:03:29.000Z,1.80
2022-08-28T08:06:03.095Z,1.80
2022-08-28T08:08:31.897Z,1.83
2022-08-28T08:11:10.669Z,1.58
2022-08-28T08:13:39.422Z,1.42
2022-08-28T08:16:17.359Z,1.58
2022-08-28T08:18:44.485Z,1.30
2022-08-28T08:21:14.476Z,1.25
2022-08-28T08:23:41.775Z,1.33
2022-08-28T08:26:15.977Z,1.20
2022-08-28T08:28:43.741Z,1.10
2022-08-28T08:31:11.955Z,1.15
2022-08-28T08:33:43.004Z,1.40
2022-08-28T08:36:11.803Z,1.13
2022-08-28T08:38:39.402Z,1.10
2022-08-28T08:41:30.784Z,1.10
2022-08-28T08:44:03.589Z,1.00
2022-08-28T08:47:03.806Z,1.45
2022-08-28T08:49:38.631Z,0.80
2022-08-28T08:52:58.954Z,1.00
2022-08-28T08:55:31.587Z,0.98
2022-08-28T08:58:07.835Z,0.98
2022-08-28T09:00:43.361Z,1.08
2022-08-28T09:03:16.284Z,0.90
2022-08-28T09:05:50.217Z,1.00
2022-08-28T09:08:34.229Z,1.10
2022-08-28T09:11:07.026Z,0.88
2022-08-28T09:14:02.942Z,0.90
2022-08-28T09:16:38.547Z,0.98
2022-08-28T09:19:09.590Z,1.10
2022-08-28T09:21:45.160Z,0.80
2022-08-28T09:24:20.945Z,0.80
2022-08-28T09:26:57.818Z,0.80
2022-08-28T09:29:37.532Z,0.80
2022-08-28T09:32:30.551Z,0.93
2022-08-28T09:35:02.507Z,0.80
2022-08-28T09:37:32.385Z,0.85
2022-08-28T09:40:22.461Z,1.00
2022-08-28T09:43:18.669Z,0.82
2022-08-28T09:45:51.872Z,0.77
2022-08-28T09:48:24.788Z,1.00
2022-08-28T09:51:03.746Z,0.95
2022-08-28T09:53:34.389Z,1.35
2022-08-28T09:56:24.545Z,0.70
2022-08-28T09:59:00.039Z,0.90
2022-08-28T10:02:06.240Z,0.95
2022-08-28T10:05:10.680Z,0.90
2022-08-28T10:08:03.158Z,0.75
2022-08-28T10:10:49.738Z,0.63
2022-08-28T10:13:27.582Z,0.65
2022-08-28T10:16:26.383Z,0.80
2022-08-28T10:19:20.005Z,0.77
2022-08-28T10:21:55.489Z,0.70
2022-08-28T10:24:58.815Z,0.80
2022-08-28T10:27:44.246Z,0.70
2022-08-28T10:30:15.145Z,0.60
2022-08-28T10:32:54.610Z,1.33
2022-08-28T10:35:44.110Z,1.00
2022-08-28T10:38:50.815Z,0.70
2022-08-28T10:41:33.981Z,0.80
2022-08-28T10:44:03.889Z,0.70
2022-08-28T10:46:52.810Z,0.77
2022-08-28T10:49:37.380Z,0.80
2022-08-28T10:52:39.169Z,1.88
2022-08-28T10:55:14.066Z,0.75
2022-08-28T10:58:03.929Z,0.50
2022-08-28T11:00:31.740Z,0.80
2022-08-28T11:03:22.177Z,0.60
2022-08-28T11:06:05.860Z,0.63
2022-08-28T11:08:37.136Z,0.95
2022-08-28T11:11:06.811Z,0.75
2022-08-28T11:14:01.563Z,0.70
2022-08-28T11:16:28.346Z,0.60
2022-08-28T11:18:59.983Z,0.80
2022-08-28T11:21:33.147Z,0.80
2022-08-28T11:24:28.365Z,0.90
2022-08-28T11:27:21.649Z,0.85
2022-08-28T11:30:11.164Z,0.88
2022-08-28T11:32:56.820Z,0.80
2022-08-28T11:35:29.603Z,0.80
2022-08-28T11:37:58.527Z,0.90
2022-08-28T11:40:32.095Z,0.80
2022-08-28T11:43:34.984Z,0.80
2022-08-28T11:46:10.738Z,0.85
2022-08-28T11:48:39.540Z,0.80
2022-08-28T11:51:18.443Z,0.70
2022-08-28T11:53:51.664Z,0.80
2022-08-28T11:56:42.707Z,0.60
2022-08-28T11:59:25.501Z,1.00
2022-08-28T12:02:43.271Z,0.98
2022-08-28T12:05:15.800Z,1.60
2022-08-28T12:07:51.304Z,1.02
2022-08-28T12:10:27.660Z,0.80
2022-08-28T12:13:02.920Z,0.80
2022-08-28T12:15:32.443Z,1.00
2022-08-28T12:18:11.163Z,1.00
2022-08-28T12:21:00.347Z,1.00
2022-08-28T12:23:30.090Z,0.80
2022-08-28T12:26:04.217Z,1.00
2022-08-28T12:28:59.103Z,0.90
2022-08-28T12:31:45.801Z,0.90
2022-08-28T12:34:46.345Z,0.80
2022-08-28T12:37:52.776Z,0.77
2022-08-28T12:40:23.119Z,0.80
2022-08-28T12:43:02.923Z,1.08
2022-08-28T12:45:40.737Z,0.98
2022-08-28T12:48:18.077Z,0.90
2022-08-28T12:50:44.954Z,0.90
2022-08-28T12:53:17.827Z,0.93
2022-08-28T12:55:46.633Z,0.70
2022-08-28T12:58:33.631Z,0.93
2022-08-28T13:01:12.372Z,0.88
2022-08-28T13:03:43.359Z,0.80
2022-08-28T13:06:11.291Z,1.10
2022-08-28T13:08:38.403Z,1.10
2022-08-28T13:11:05.908Z,1.02
2022-08-28T13:13:45.350Z,0.80
2022-08-28T13:16:33.386Z,0.77
2022-08-28T13:19:04.381Z,0.80
2022-08-28T13:21:58.643Z,0.80
2022-08-28T13:24:43.953Z,1.00
2022-08-28T13:27:19.557Z,0.75
2022-08-28T13:29:57.420Z,1.05
2022-08-28T13:32:27.962Z,0.80
2022-08-28T13:35:22.193Z,1.00
2022-08-28T13:37:55.033Z,0.80
2022-08-28T13:40:58.785Z,0.95
2022-08-28T13:43:29.153Z,2.75
2022-08-28T13:45:56.124Z,1.02
2022-08-28T13:48:25.418Z,1.00
2022-08-28T13:50:58.793Z,1.13
2022-08-28T13:53:25.781Z,1.13
2022-08-28T13:55:52.589Z,3.10
2022-08-28T13:58:19.496Z,1.73
2022-08-28T14:00:48.603Z,0.85
2022-08-28T14:03:34.419Z,0.90
2022-08-28T14:06:05.760Z,1.00
2022-08-28T14:08:32.662Z,1.10
2022-08-28T14:10:59.941Z,0.80
2022-08-28T14:13:28.249Z,0.90
2022-08-28T14:15:56.705Z,0.90
2022-08-28T14:18:25.260Z,0.95
2022-08-28T14:20:52.655Z,1.05
2022-08-28T14:23:19.710Z,0.80
2022-08-28T14:25:47.701Z,0.98
2022-08-28T14:28:15.621Z,0.88
2022-08-28T14:30:48.545Z,0.90
2022-08-28T14:33:18.855Z,1.00
2022-08-28T14:35:49.131Z,0.90
2022-08-28T14:38:16.140Z,1.00
2022-08-28T14:40:44.422Z,1.00
2022-08-28T14:43:13.205Z,0.90
2022-08-28T14:45:49.715Z,0.98
2022-08-28T14:48:18.650Z,0.73
2022-08-28T14:50:48.184Z,0.80
2022-08-28T14:53:16.091Z,0.80
2022-08-28T14:55:45.541Z,1.00
2022-08-28T14:58:13.586Z,0.80
2022-08-28T15:00:43.873Z,0.80
2022-08-28T15:03:11.523Z,0.70
2022-08-28T15:05:38.647Z,0.70
2022-08-28T15:08:10.290Z,0.80
2022-08-28T15:10:42.417Z,0.90
2022-08-28T15:13:11.415Z,0.80
2022-08-28T15:15:39.736Z,0.68
2022-08-28T15:18:07.649Z,0.70
2022-08-28T15:20:39.219Z,0.70
2022-08-28T15:23:06.181Z,0.60
2022-08-28T15:25:33.113Z,0.73
2022-08-28T15:27:59.860Z,0.82
2022-08-28T15:30:26.973Z,0.80
2022-08-28T15:32:54.464Z,0.60
2022-08-28T15:35:21.421Z,0.90
2022-08-28T15:37:48.787Z,0.90
2022-08-28T15:40:34.117Z,1.15
2022-08-28T15:43:00.946Z,0.90
2022-08-28T15:45:27.819Z,0.70
2022-08-28T15:47:54.713Z,0.70
2022-08-28T15:50:21.925Z,0.70
2022-08-28T15:52:48.791Z,0.70
2022-08-28T15:55:16.019Z,0.60
2022-08-28T15:57:42.972Z,0.60
2022-08-28T16:00:10.567Z,0.60
2022-08-28T16:02:37.643Z,0.70
2022-08-28T16:05:04.896Z,0.65
2022-08-28T16:07:31.695Z,1.10
2022-08-28T16:09:58.548Z,0.80
2022-08-28T16:12:25.689Z,0.82
2022-08-28T16:14:52.565Z,0.95
2022-08-28T16:17:19.382Z,1.10
2022-08-28T16:19:46.843Z,1.10
2022-08-28T16:22:16.031Z,0.77
2022-08-28T16:24:44.105Z,0.90
2022-08-28T16:27:15.339Z,0.98
2022-08-28T16:29:44.295Z,0.90
2022-08-28T16:32:11.752Z,0.90
2022-08-28T16:34:39.183Z,1.00
2022-08-28T16:37:07.997Z,0.93
2022-08-28T16:39:35.989Z,0.98
2022-08-28T16:42:03.121Z,0.75
2022-08-28T16:44:30.135Z,1.00
2022-08-28T16:46:57.299Z,0.70
2022-08-28T16:49:24.795Z,1.15
2022-08-28T16:51:51.839Z,1.90
2022-08-28T16:54:18.972Z,1.20
2022-08-28T16:56:46.573Z,1.42
2022-08-28T16:59:16.644Z,0.85
2022-08-28T17:01:43.697Z,0.93
2022-08-28T17:04:12.491Z,0.95
2022-08-28T17:06:40.199Z,1.00
2022-08-28T17:09:06.982Z,1.15
2022-08-28T17:11:33.960Z,0.80
2022-08-28T17:14:00.715Z,1.10
2022-08-28T17:16:31.508Z,0.88
2022-08-28T17:18:59.564Z,0.90
2022-08-28T17:21:44.775Z,1.20
2022-08-28T17:24:14.877Z,1.40
2022-08-28T17:26:42.727Z,1.08
2022-08-28T17:29:09.569Z,0.90
2022-08-28T17:31:37.418Z,1.00
2022-08-28T17:34:05.750Z,1.10
2022-08-28T17:36:34.342Z,1.40
2022-08-28T17:39:04.084Z,1.30
2022-08-28T17:41:32.119Z,1.55
2022-08-28T17:44:00.098Z,1.40
2022-08-28T17:46:26.955Z,1.45
2022-08-28T17:48:55.777Z,1.38
2022-08-28T17:51:41.999Z,1.35
2022-08-28T17:54:15.424Z,1.50
2022-08-28T17:56:42.842Z,1.50
2022-08-28T17:59:11.615Z,1.55
2022-08-28T18:01:39.235Z,1.70
2022-08-28T18:04:06.194Z,1.40
2022-08-28T18:06:33.208Z,1.30
2022-08-28T18:09:00.626Z,1.00
2022-08-28T18:11:27.795Z,1.38
2022-08-28T18:13:54.777Z,1.20
2022-08-28T18:16:21.786Z,0.90
2022-08-28T18:18:48.654Z,1.10
2022-08-28T18:21:15.417Z,1.17
2022-08-28T18:23:42.323Z,1.05
2022-08-28T18:26:09.213Z,1.02
2022-08-28T18:28:36.792Z,1.00
2022-08-28T18:31:06.315Z,1.30
2022-08-28T18:33:33.459Z,1.27
2022-08-28T18:36:00.255Z,1.38
2022-08-28T18:38:35.037Z,1.38
2022-08-28T18:41:05.757Z,1.60
2022-08-28T18:43:33.095Z,1.58
2022-08-28T18:46:01.361Z,1.30
2022-08-28T18:48:28.827Z,1.10
2022-08-28T18:50:55.643Z,1.15
2022-08-28T18:53:23.796Z,1.40
2022-08-28T18:55:52.770Z,1.50
2022-08-28T18:58:21.689Z,1.55
2022-08-28T19:00:49.599Z,1.33
2022-08-28T19:03:16.395Z,1.38
2022-08-28T19:05:43.443Z,1.13
2022-08-28T19:08:10.406Z,1.00
2022-08-28T19:10:38.356Z,1.30
2022-08-28T19:13:06.605Z,1.27
2022-08-28T19:15:34.839Z,1.50
2022-08-28T19:18:02.727Z,1.48
2022-08-28T19:20:30.319Z,1.10
2022-08-28T19:22:58.318Z,1.52
2022-08-28T19:25:28.645Z,1.20
2022-08-28T19:27:58.842Z,1.38
2022-08-28T19:30:27.898Z,1.20
2022-08-28T19:32:55.101Z,1.42
2022-08-28T19:35:24.585Z,1.55
2022-08-28T19:37:52.594Z,1.48
2022-08-28T19:40:20.689Z,1.80
2022-08-28T19:42:48.113Z,1.63
2022-08-28T19:45:15.609Z,1.45
2022-08-28T19:47:42.543Z,1.42
2022-08-28T19:50:11.814Z,1.70
2022-08-28T19:52:39.002Z,1.48
2022-08-28T19:55:06.819Z,1.30
2022-08-28T19:57:34.727Z,1.50
2022-08-28T20:00:02.178Z,1.73
2022-08-28T20:02:29.618Z,1.80
2022-08-28T20:04:56.694Z,1.70
2022-08-28T20:07:25.114Z,2.10
2022-08-28T20:09:52.601Z,2.40
2022-08-28T20:12:19.964Z,3.20
2022-08-28T20:14:47.467Z,3.22
2022-08-28T20:17:14.495Z,2.35
2022-08-28T20:19:41.681Z,2.45
2022-08-28T20:22:08.631Z,1.98
2022-08-28T20:24:35.555Z,2.05
2022-08-28T20:27:02.458Z,1.58
2022-08-28T20:29:29.371Z,1.80
2022-08-28T20:31:56.571Z,1.67
2022-08-28T20:34:23.523Z,1.67
2022-08-28T20:36:51.070Z,2.08
2022-08-28T20:39:19.513Z,2.05
2022-08-28T20:41:47.346Z,2.40
2022-08-28T20:44:17.712Z,2.92
2022-08-28T20:46:44.641Z,3.20
2022-08-28T20:49:18.700Z,2.58
2022-08-28T20:51:58.872Z,2.88
2022-08-28T20:54:28.049Z,2.47
2022-08-28T20:56:57.371Z,3.00
2022-08-28T20:59:28.920Z,3.42
2022-08-28T21:02:09.260Z,3.58
2022-08-28T21:04:37.523Z,3.90
2022-08-28T21:07:06.098Z,3.15
2022-08-28T21:09:39.604Z,3.17
2022-08-28T21:12:20.236Z,4.07
2022-08-28T21:14:51.262Z,4.13
2022-08-28T21:17:22.684Z,4.28
2022-08-28T21:19:58.356Z,4.60
2022-08-28T21:22:25.140Z,4.20
2022-08-28T21:24:52.015Z,4.90
2022-08-28T21:27:18.839Z,3.85
2022-08-28T21:29:46.187Z,4.32
2022-08-28T21:32:13.659Z,4.03
2022-08-28T21:34:40.416Z,4.75
2022-08-28T21:37:07.174Z,4.47
2022-08-28T21:39:35.411Z,5.28
2022-08-28T21:42:02.195Z,4.60
2022-08-28T21:44:29.211Z,4.72
2022-08-28T21:46:56.003Z,4.45
2022-08-28T21:49:23.223Z,4.68
2022-08-28T21:51:50.602Z,4.65
2022-08-28T21:54:18.401Z,3.90
2022-08-28T21:56:46.357Z,4.78
2022-08-28T21:59:15.173Z,3.65
2022-08-28T22:01:42.219Z,4.35
2022-08-28T22:04:09.618Z,4.22
2022-08-28T22:06:36.634Z,4.30
2022-08-28T22:09:05.235Z,4.88
2022-08-28T22:11:32.983Z,3.95
2022-08-28T22:14:00.592Z,3.95
2022-08-28T22:16:28.950Z,4.63
2022-08-28T22:18:55.797Z,4.82
2022-08-28T22:21:44.150Z,4.72
2022-08-28T22:24:12.305Z,3.83
2022-08-28T22:26:40.281Z,4.03
2022-08-28T22:29:08.056Z,3.58
2022-08-28T22:31:36.652Z,3.60
2022-08-28T22:34:06.086Z,3.50
2022-08-28T22:36:33.297Z,3.78
2022-08-28T22:39:00.122Z,3.53
2022-08-28T22:41:27.065Z,3.35
2022-08-28T22:43:54.257Z,3.42
2022-08-28T22:46:21.202Z,3.85
2022-08-28T22:48:48.341Z,3.60
2022-08-28T22:51:18.562Z,3.20
2022-08-28T22:53:46.909Z,3.15
2022-08-28T22:56:14.759Z,3.58
2022-08-28T22:58:42.066Z,3.53
2022-08-28T23:01:13.530Z,3.15
2022-08-28T23:03:40.856Z,3.28
2022-08-28T23:06:08.030Z,3.88
2022-08-28T23:08:35.283Z,3.80
2022-08-28T23:11:02.210Z,3.72
2022-08-28T23:13:30.094Z,4.20
2022-08-28T23:15:57.337Z,4.25
2022-08-28T23:18:24.844Z,4.75
2022-08-28T23:20:52.606Z,4.13
2022-08-28T23:23:19.614Z,4.10
2022-08-28T23:25:46.466Z,4.60
2022-08-28T23:28:14.290Z,4.43
2022-08-28T23:30:48.341Z,4.65
2022-08-28T23:33:23.622Z,4.60
2022-08-28T23:35:51.172Z,4.72
2022-08-28T23:38:18.022Z,5.25
2022-08-28T23:40:44.778Z,4.88
2022-08-28T23:43:12.221Z,4.80
2022-08-28T23:45:40.618Z,4.65
2022-08-28T23:48:08.036Z,4.65
2022-08-28T23:50:34.925Z,4.57
2022-08-28T23:53:02.766Z,4.40
2022-08-28T23:55:31.289Z,4.30
2022-08-28T23:58:00.398Z,4.75
